sensor_id;sensor_type;location;lat;lon;timestamp;P1;durP1;ratioP1;P2;durP2;ratioP2
32094;SDS011;18608;53.688;10.748;2023-06-22T00:01:09;6.00;;;2.83;;
32094;SDS011;18608;53.688;10.748;2023-06-22T00:03:35;3.00;;;2.70;;
32094;SDS011;18608;53.688;10.748;2023-06-22T00:06:01;5.13;;;3.60;;
32094;SDS011;18608;53.688;10.748;2023-06-22T00:08:28;4.00;;;2.83;;
32094;SDS011;18608;53.688;10.748;2023-06-22T00:10:54;3.50;;;2.80;;
32094;SDS011;18608;53.688;10.748;2023-06-22T00:13:21;3.17;;;2.77;;
32094;SDS011;18608;53.688;10.748;2023-06-22T00:15:46;2.50;;;2.30;;
32094;SDS011;18608;53.688;10.748;2023-06-22T00:18:12;4.40;;;2.93;;
32094;SDS011;18608;53.688;10.748;2023-06-22T00:20:38;4.00;;;2.93;;
32094;SDS011;18608;53.688;10.748;2023-06-22T00:23:05;4.83;;;2.70;;
32094;SDS011;18608;53.688;10.748;2023-06-22T00:25:35;3.60;;;2.60;;
32094;SDS011;18608;53.688;10.748;2023-06-22T00:28:01;3.40;;;2.80;;
32094;SDS011;18608;53.688;10.748;2023-06-22T00:30:28;3.67;;;3.37;;
32094;SDS011;18608;53.688;10.748;2023-06-22T00:32:55;3.50;;;3.20;;
32094;SDS011;18608;53.688;10.748;2023-06-22T00:35:21;3.50;;;3.20;;
32094;SDS011;18608;53.688;10.748;2023-06-22T00:37:47;4.17;;;3.80;;
32094;SDS011;18608;53.688;10.748;2023-06-22T00:40:13;2.90;;;2.70;;
32094;SDS011;18608;53.688;10.748;2023-06-22T00:42:40;7.27;;;3.70;;
32094;SDS011;18608;53.688;10.748;2023-06-22T00:45:06;3.13;;;2.83;;
32094;SDS011;18608;53.688;10.748;2023-06-22T00:47:33;4.30;;;3.17;;
32094;SDS011;18608;53.688;10.748;2023-06-22T00:50:01;3.53;;;3.23;;
32094;SDS011;18608;53.688;10.748;2023-06-22T00:52:31;3.67;;;3.30;;
32094;SDS011;18608;53.688;10.748;2023-06-22T00:55:00;4.07;;;3.47;;
32094;SDS011;18608;53.688;10.748;2023-06-22T00:57:27;3.67;;;3.37;;
32094;SDS011;18608;53.688;10.748;2023-06-22T00:59:54;2.70;;;2.50;;
32094;SDS011;18608;53.688;10.748;2023-06-22T01:02:20;5.20;;;3.90;;
32094;SDS011;18608;53.688;10.748;2023-06-22T01:04:46;7.07;;;3.50;;
32094;SDS011;18608;53.688;10.748;2023-06-22T01:10:58;4.50;;;3.10;;
32094;SDS011;18608;53.688;10.748;2023-06-22T01:15:49;3.90;;;3.23;;
32094;SDS011;18608;53.688;10.748;2023-06-22T01:18:29;4.27;;;3.43;;
32094;SDS011;18608;53.688;10.748;2023-06-22T01:20:56;4.63;;;3.30;;
32094;SDS011;18608;53.688;10.748;2023-06-22T01:23:27;6.17;;;3.87;;
32094;SDS011;18608;53.688;10.748;2023-06-22T01:31:08;3.63;;;3.33;;
32094;SDS011;18608;53.688;10.748;2023-06-22T01:33:37;4.13;;;3.63;;
32094;SDS011;18608;53.688;10.748;2023-06-22T01:36:05;8.77;;;3.97;;
32094;SDS011;18608;53.688;10.748;2023-06-22T01:38:32;3.20;;;2.80;;
32094;SDS011;18608;53.688;10.748;2023-06-22T01:40:59;5.57;;;4.07;;
32094;SDS011;18608;53.688;10.748;2023-06-22T01:43:26;5.07;;;3.60;;
32094;SDS011;18608;53.688;10.748;2023-06-22T01:45:53;7.40;;;4.07;;
32094;SDS011;18608;53.688;10.748;2023-06-22T01:48:20;8.63;;;3.90;;
32094;SDS011;18608;53.688;10.748;2023-06-22T01:50:47;5.50;;;4.20;;
32094;SDS011;18608;53.688;10.748;2023-06-22T01:53:13;8.83;;;4.00;;
32094;SDS011;18608;53.688;10.748;2023-06-22T01:55:39;4.67;;;4.27;;
32094;SDS011;18608;53.688;10.748;2023-06-22T01:58:05;6.00;;;4.10;;
32094;SDS011;18608;53.688;10.748;2023-06-22T02:00:36;4.20;;;3.80;;
32094;SDS011;18608;53.688;10.748;2023-06-22T02:03:17;7.20;;;4.33;;
32094;SDS011;18608;53.688;10.748;2023-06-22T02:05:50;6.13;;;4.10;;
32094;SDS011;18608;53.688;10.748;2023-06-22T02:08:25;9.67;;;4.50;;
32094;SDS011;18608;53.688;10.748;2023-06-22T02:10:55;10.50;;;4.80;;
32094;SDS011;18608;53.688;10.748;2023-06-22T02:13:23;6.13;;;3.83;;
32094;SDS011;18608;53.688;10.748;2023-06-22T02:15:50;5.40;;;4.37;;
32094;SDS011;18608;53.688;10.748;2023-06-22T02:18:16;4.67;;;4.27;;
32094;SDS011;18608;53.688;10.748;2023-06-22T02:20:42;6.90;;;4.50;;
32094;SDS011;18608;53.688;10.748;2023-06-22T02:23:08;5.30;;;3.83;;
32094;SDS011;18608;53.688;10.748;2023-06-22T02:25:34;5.47;;;3.73;;
32094;SDS011;18608;53.688;10.748;2023-06-22T02:28:00;6.00;;;4.30;;
32094;SDS011;18608;53.688;10.748;2023-06-22T02:30:26;7.37;;;5.07;;
32094;SDS011;18608;53.688;10.748;2023-06-22T02:32:53;7.80;;;4.43;;
32094;SDS011;18608;53.688;10.748;2023-06-22T02:35:24;4.67;;;3.87;;
32094;SDS011;18608;53.688;10.748;2023-06-22T02:37:51;5.30;;;3.87;;
32094;SDS011;18608;53.688;10.748;2023-06-22T02:40:17;9.20;;;5.20;;
32094;SDS011;18608;53.688;10.748;2023-06-22T02:42:43;7.00;;;4.00;;
32094;SDS011;18608;53.688;10.748;2023-06-22T02:45:09;6.47;;;5.20;;
32094;SDS011;18608;53.688;10.748;2023-06-22T02:47:35;5.40;;;4.47;;
32094;SDS011;18608;53.688;10.748;2023-06-22T02:50:01;6.07;;;4.27;;
32094;SDS011;18608;53.688;10.748;2023-06-22T02:52:27;5.83;;;4.80;;
32094;SDS011;18608;53.688;10.748;2023-06-22T02:54:53;5.10;;;4.10;;
32094;SDS011;18608;53.688;10.748;2023-06-22T02:57:19;6.67;;;4.70;;
32094;SDS011;18608;53.688;10.748;2023-06-22T02:59:45;4.07;;;3.67;;
32094;SDS011;18608;53.688;10.748;2023-06-22T03:02:12;6.17;;;4.53;;
32094;SDS011;18608;53.688;10.748;2023-06-22T03:04:38;6.17;;;5.40;;
32094;SDS011;18608;53.688;10.748;2023-06-22T03:07:04;5.67;;;3.83;;
32094;SDS011;18608;53.688;10.748;2023-06-22T03:09:30;14.30;;;5.40;;
32094;SDS011;18608;53.688;10.748;2023-06-22T03:11:56;5.80;;;4.33;;
32094;SDS011;18608;53.688;10.748;2023-06-22T03:14:22;9.13;;;5.00;;
32094;SDS011;18608;53.688;10.748;2023-06-22T03:16:48;6.10;;;4.00;;
32094;SDS011;18608;53.688;10.748;2023-06-22T03:19:14;4.63;;;4.17;;
32094;SDS011;18608;53.688;10.748;2023-06-22T03:21:40;4.37;;;3.97;;
32094;SDS011;18608;53.688;10.748;2023-06-22T03:24:06;7.40;;;4.50;;
32094;SDS011;18608;53.688;10.748;2023-06-22T03:26:33;5.53;;;4.77;;
32094;SDS011;18608;53.688;10.748;2023-06-22T03:28:59;6.67;;;3.83;;
32094;SDS011;18608;53.688;10.748;2023-06-22T03:31:25;9.03;;;4.53;;
32094;SDS011;18608;53.688;10.748;2023-06-22T03:33:51;13.63;;;5.50;;
32094;SDS011;18608;53.688;10.748;2023-06-22T03:36:17;6.10;;;4.03;;
32094;SDS011;18608;53.688;10.748;2023-06-22T03:38:44;7.30;;;4.40;;
32094;SDS011;18608;53.688;10.748;2023-06-22T03:41:11;8.10;;;4.50;;
32094;SDS011;18608;53.688;10.748;2023-06-22T03:43:37;5.20;;;4.63;;
32094;SDS011;18608;53.688;10.748;2023-06-22T03:46:03;6.07;;;5.40;;
32094;SDS011;18608;53.688;10.748;2023-06-22T03:48:29;9.60;;;4.23;;
32094;SDS011;18608;53.688;10.748;2023-06-22T03:50:55;5.20;;;4.33;;
32094;SDS011;18608;53.688;10.748;2023-06-22T03:53:21;13.00;;;4.93;;
32094;SDS011;18608;53.688;10.748;2023-06-22T03:55:48;8.00;;;4.87;;
32094;SDS011;18608;53.688;10.748;2023-06-22T03:58:18;9.57;;;5.10;;
32094;SDS011;18608;53.688;10.748;2023-06-22T04:00:48;4.90;;;4.40;;
32094;SDS011;18608;53.688;10.748;2023-06-22T04:03:15;7.07;;;4.63;;
32094;SDS011;18608;53.688;10.748;2023-06-22T04:05:41;6.63;;;4.90;;
32094;SDS011;18608;53.688;10.748;2023-06-22T04:08:08;5.63;;;3.80;;
32094;SDS011;18608;53.688;10.748;2023-06-22T04:10:34;3.90;;;3.50;;
32094;SDS011;18608;53.688;10.748;2023-06-22T04:13:00;5.10;;;3.80;;
32094;SDS011;18608;53.688;10.748;2023-06-22T04:15:26;6.10;;;4.87;;
32094;SDS011;18608;53.688;10.748;2023-06-22T04:17:54;5.80;;;4.10;;
32094;SDS011;18608;53.688;10.748;2023-06-22T04:20:20;8.10;;;5.00;;
32094;SDS011;18608;53.688;10.748;2023-06-22T04:22:46;4.80;;;4.37;;
32094;SDS011;18608;53.688;10.748;2023-06-22T04:25:12;4.93;;;3.90;;
32094;SDS011;18608;53.688;10.748;2023-06-22T04:27:38;4.30;;;3.90;;
32094;SDS011;18608;53.688;10.748;2023-06-22T04:30:07;9.33;;;4.63;;
32094;SDS011;18608;53.688;10.748;2023-06-22T04:32:36;5.17;;;4.50;;
32094;SDS011;18608;53.688;10.748;2023-06-22T04:35:04;5.17;;;4.10;;
32094;SDS011;18608;53.688;10.748;2023-06-22T04:37:31;4.60;;;4.00;;
32094;SDS011;18608;53.688;10.748;2023-06-22T04:39:57;4.87;;;3.53;;
32094;SDS011;18608;53.688;10.748;2023-06-22T04:42:25;6.83;;;3.73;;
32094;SDS011;18608;53.688;10.748;2023-06-22T04:44:51;5.20;;;3.63;;
32094;SDS011;18608;53.688;10.748;2023-06-22T04:47:17;4.47;;;3.57;;
32094;SDS011;18608;53.688;10.748;2023-06-22T04:49:43;9.13;;;5.03;;
32094;SDS011;18608;53.688;10.748;2023-06-22T04:52:11;5.23;;;4.33;;
32094;SDS011;18608;53.688;10.748;2023-06-22T04:54:38;4.27;;;3.87;;
32094;SDS011;18608;53.688;10.748;2023-06-22T04:57:06;5.83;;;4.10;;
32094;SDS011;18608;53.688;10.748;2023-06-22T04:59:35;6.83;;;4.30;;
32094;SDS011;18608;53.688;10.748;2023-06-22T05:02:04;6.33;;;3.70;;
32094;SDS011;18608;53.688;10.748;2023-06-22T05:04:31;19.70;;;3.93;;
32094;SDS011;18608;53.688;10.748;2023-06-22T05:06:57;6.83;;;4.83;;
32094;SDS011;18608;53.688;10.748;2023-06-22T05:09:24;5.33;;;4.50;;
32094;SDS011;18608;53.688;10.748;2023-06-22T05:11:50;7.00;;;4.77;;
32094;SDS011;18608;53.688;10.748;2023-06-22T05:14:16;7.93;;;3.83;;
32094;SDS011;18608;53.688;10.748;2023-06-22T05:16:43;5.10;;;3.50;;
32094;SDS011;18608;53.688;10.748;2023-06-22T05:19:09;5.60;;;3.77;;
32094;SDS011;18608;53.688;10.748;2023-06-22T05:21:35;5.27;;;4.23;;
32094;SDS011;18608;53.688;10.748;2023-06-22T05:24:01;7.07;;;3.80;;
32094;SDS011;18608;53.688;10.748;2023-06-22T05:26:28;4.20;;;3.43;;
32094;SDS011;18608;53.688;10.748;2023-06-22T05:28:55;4.57;;;3.50;;
32094;SDS011;18608;53.688;10.748;2023-06-22T05:31:22;5.67;;;4.70;;
32094;SDS011;18608;53.688;10.748;2023-06-22T05:33:49;8.13;;;4.47;;
32094;SDS011;18608;53.688;10.748;2023-06-22T05:36:16;7.80;;;4.80;;
32094;SDS011;18608;53.688;10.748;2023-06-22T05:38:42;7.73;;;4.23;;
32094;SDS011;18608;53.688;10.748;2023-06-22T05:41:08;5.57;;;4.60;;
32094;SDS011;18608;53.688;10.748;2023-06-22T05:43:34;7.20;;;4.50;;
32094;SDS011;18608;53.688;10.748;2023-06-22T05:46:00;9.33;;;5.13;;
32094;SDS011;18608;53.688;10.748;2023-06-22T05:48:26;5.40;;;4.90;;
32094;SDS011;18608;53.688;10.748;2023-06-22T05:50:53;3.80;;;3.50;;
32094;SDS011;18608;53.688;10.748;2023-06-22T05:53:19;6.20;;;4.33;;
32094;SDS011;18608;53.688;10.748;2023-06-22T05:55:45;5.60;;;4.13;;
32094;SDS011;18608;53.688;10.748;2023-06-22T05:58:11;6.80;;;4.40;;
32094;SDS011;18608;53.688;10.748;2023-06-22T06:00:38;5.00;;;3.50;;
32094;SDS011;18608;53.688;10.748;2023-06-22T06:03:04;9.30;;;4.70;;
32094;SDS011;18608;53.688;10.748;2023-06-22T06:05:32;4.47;;;3.80;;
32094;SDS011;18608;53.688;10.748;2023-06-22T06:07:59;9.10;;;4.50;;
32094;SDS011;18608;53.688;10.748;2023-06-22T06:10:25;6.60;;;4.30;;
32094;SDS011;18608;53.688;10.748;2023-06-22T06:12:51;8.40;;;3.87;;
32094;SDS011;18608;53.688;10.748;2023-06-22T06:15:18;4.30;;;3.90;;
32094;SDS011;18608;53.688;10.748;2023-06-22T06:20:13;8.27;;;5.37;;
32094;SDS011;18608;53.688;10.748;2023-06-22T06:22:39;4.73;;;4.20;;
32094;SDS011;18608;53.688;10.748;2023-06-22T06:25:05;8.93;;;4.40;;
32094;SDS011;18608;53.688;10.748;2023-06-22T06:27:31;5.13;;;4.07;;
32094;SDS011;18608;53.688;10.748;2023-06-22T06:29:57;7.87;;;4.80;;
32094;SDS011;18608;53.688;10.748;2023-06-22T06:32:23;5.07;;;4.27;;
32094;SDS011;18608;53.688;10.748;2023-06-22T06:34:49;5.40;;;4.77;;
32094;SDS011;18608;53.688;10.748;2023-06-22T06:37:16;4.60;;;3.80;;
32094;SDS011;18608;53.688;10.748;2023-06-22T06:39:43;4.50;;;4.03;;
32094;SDS011;18608;53.688;10.748;2023-06-22T06:42:09;5.27;;;3.63;;
32094;SDS011;18608;53.688;10.748;2023-06-22T06:44:36;4.60;;;3.10;;
32094;SDS011;18608;53.688;10.748;2023-06-22T06:47:03;5.40;;;3.50;;
32094;SDS011;18608;53.688;10.748;2023-06-22T06:49:29;5.17;;;2.97;;
32094;SDS011;18608;53.688;10.748;2023-06-22T06:51:55;4.33;;;2.83;;
32094;SDS011;18608;53.688;10.748;2023-06-22T06:54:21;3.77;;;2.50;;
32094;SDS011;18608;53.688;10.748;2023-06-22T06:56:47;3.33;;;3.03;;
32094;SDS011;18608;53.688;10.748;2023-06-22T06:59:14;5.97;;;3.37;;
32094;SDS011;18608;53.688;10.748;2023-06-22T07:01:41;3.40;;;2.77;;
32094;SDS011;18608;53.688;10.748;2023-06-22T07:04:07;2.67;;;2.47;;
32094;SDS011;18608;53.688;10.748;2023-06-22T07:06:33;2.90;;;2.60;;
32094;SDS011;18608;53.688;10.748;2023-06-22T07:08:59;3.77;;;2.63;;
32094;SDS011;18608;53.688;10.748;2023-06-22T07:11:26;2.57;;;2.37;;
32094;SDS011;18608;53.688;10.748;2023-06-22T07:13:52;2.77;;;2.50;;
32094;SDS011;18608;53.688;10.748;2023-06-22T07:16:18;3.57;;;3.20;;
32094;SDS011;18608;53.688;10.748;2023-06-22T07:18:44;4.27;;;2.83;;
32094;SDS011;18608;53.688;10.748;2023-06-22T07:21:10;5.00;;;2.50;;
32094;SDS011;18608;53.688;10.748;2023-06-22T07:23:36;3.10;;;2.80;;
32094;SDS011;18608;53.688;10.748;2023-06-22T07:26:02;4.60;;;2.50;;
32094;SDS011;18608;53.688;10.748;2023-06-22T07:28:31;5.50;;;3.20;;
32094;SDS011;18608;53.688;10.748;2023-06-22T07:31:02;4.40;;;2.77;;
32094;SDS011;18608;53.688;10.748;2023-06-22T07:33:29;4.77;;;3.10;;
32094;SDS011;18608;53.688;10.748;2023-06-22T07:35:55;3.77;;;3.30;;
32094;SDS011;18608;53.688;10.748;2023-06-22T07:38:21;3.90;;;2.73;;
32094;SDS011;18608;53.688;10.748;2023-06-22T07:40:47;3.50;;;2.50;;
32094;SDS011;18608;53.688;10.748;2023-06-22T07:43:13;5.63;;;3.03;;
32094;SDS011;18608;53.688;10.748;2023-06-22T07:45:39;4.83;;;3.57;;
32094;SDS011;18608;53.688;10.748;2023-06-22T07:48:07;3.73;;;2.90;;
32094;SDS011;18608;53.688;10.748;2023-06-22T07:50:33;3.60;;;2.70;;
32094;SDS011;18608;53.688;10.748;2023-06-22T07:52:59;6.37;;;3.10;;
32094;SDS011;18608;53.688;10.748;2023-06-22T07:55:25;3.10;;;2.73;;
32094;SDS011;18608;53.688;10.748;2023-06-22T07:57:51;3.40;;;3.10;;
32094;SDS011;18608;53.688;10.748;2023-06-22T08:00:17;2.90;;;2.17;;
32094;SDS011;18608;53.688;10.748;2023-06-22T08:02:44;3.87;;;2.97;;
32094;SDS011;18608;53.688;10.748;2023-06-22T08:05:11;3.47;;;2.87;;
32094;SDS011;18608;53.688;10.748;2023-06-22T08:07:38;3.17;;;2.60;;
32094;SDS011;18608;53.688;10.748;2023-06-22T08:10:04;2.90;;;2.53;;
32094;SDS011;18608;53.688;10.748;2023-06-22T08:12:31;4.93;;;3.27;;
32094;SDS011;18608;53.688;10.748;2023-06-22T08:14:57;3.27;;;2.97;;
32094;SDS011;18608;53.688;10.748;2023-06-22T08:17:23;3.07;;;2.87;;
32094;SDS011;18608;53.688;10.748;2023-06-22T08:19:49;2.87;;;2.67;;
32094;SDS011;18608;53.688;10.748;2023-06-22T08:22:16;3.20;;;2.87;;
32094;SDS011;18608;53.688;10.748;2023-06-22T08:24:42;3.77;;;3.57;;
32094;SDS011;18608;53.688;10.748;2023-06-22T08:27:09;4.87;;;3.60;;
32094;SDS011;18608;53.688;10.748;2023-06-22T08:29:39;3.27;;;2.97;;
32094;SDS011;18608;53.688;10.748;2023-06-22T08:32:08;3.63;;;2.13;;
32094;SDS011;18608;53.688;10.748;2023-06-22T08:34:34;9.43;;;2.90;;
32094;SDS011;18608;53.688;10.748;2023-06-22T08:37:00;3.03;;;2.50;;
32094;SDS011;18608;53.688;10.748;2023-06-22T08:39:26;3.93;;;2.83;;
32094;SDS011;18608;53.688;10.748;2023-06-22T08:41:52;4.17;;;2.40;;
32094;SDS011;18608;53.688;10.748;2023-06-22T08:44:19;4.00;;;2.63;;
32094;SDS011;18608;53.688;10.748;2023-06-22T08:46:45;3.07;;;2.70;;
32094;SDS011;18608;53.688;10.748;2023-06-22T08:49:12;2.70;;;2.43;;
32094;SDS011;18608;53.688;10.748;2023-06-22T08:51:38;7.67;;;2.87;;
32094;SDS011;18608;53.688;10.748;2023-06-22T08:54:04;3.00;;;2.50;;
32094;SDS011;18608;53.688;10.748;2023-06-22T08:56:30;2.77;;;2.23;;
32094;SDS011;18608;53.688;10.748;2023-06-22T08:58:56;3.90;;;3.20;;
32094;SDS011;18608;53.688;10.748;2023-06-22T09:01:22;5.70;;;4.60;;
32094;SDS011;18608;53.688;10.748;2023-06-22T09:03:48;8.90;;;2.10;;
32094;SDS011;18608;53.688;10.748;2023-06-22T09:06:19;3.17;;;2.13;;
32094;SDS011;18608;53.688;10.748;2023-06-22T09:08:46;2.50;;;2.30;;
32094;SDS011;18608;53.688;10.748;2023-06-22T09:11:12;4.70;;;2.90;;
32094;SDS011;18608;53.688;10.748;2023-06-22T09:13:38;5.00;;;2.97;;
32094;SDS011;18608;53.688;10.748;2023-06-22T09:16:04;2.40;;;2.20;;
32094;SDS011;18608;53.688;10.748;2023-06-22T09:18:31;3.53;;;3.23;;
32094;SDS011;18608;53.688;10.748;2023-06-22T09:20:57;5.73;;;2.87;;
32094;SDS011;18608;53.688;10.748;2023-06-22T09:23:23;2.87;;;2.67;;
32094;SDS011;18608;53.688;10.748;2023-06-22T09:25:49;2.97;;;2.40;;
32094;SDS011;18608;53.688;10.748;2023-06-22T09:28:15;7.20;;;3.60;;
32094;SDS011;18608;53.688;10.748;2023-06-22T09:30:45;3.73;;;3.00;;
32094;SDS011;18608;53.688;10.748;2023-06-22T09:33:11;2.73;;;2.53;;
32094;SDS011;18608;53.688;10.748;2023-06-22T09:35:37;2.70;;;2.50;;
32094;SDS011;18608;53.688;10.748;2023-06-22T09:38:03;2.53;;;2.43;;
32094;SDS011;18608;53.688;10.748;2023-06-22T09:40:29;3.00;;;2.70;;
32094;SDS011;18608;53.688;10.748;2023-06-22T09:42:55;3.03;;;2.47;;
32094;SDS011;18608;53.688;10.748;2023-06-22T09:45:21;2.63;;;1.93;;
32094;SDS011;18608;53.688;10.748;2023-06-22T09:47:47;2.70;;;2.50;;
32094;SDS011;18608;53.688;10.748;2023-06-22T09:50:13;3.03;;;1.97;;
32094;SDS011;18608;53.688;10.748;2023-06-22T09:52:39;4.13;;;2.33;;
32094;SDS011;18608;53.688;10.748;2023-06-22T09:55:07;2.27;;;1.87;;
32094;SDS011;18608;53.688;10.748;2023-06-22T09:57:33;2.40;;;2.07;;
32094;SDS011;18608;53.688;10.748;2023-06-22T09:59:59;6.40;;;3.20;;
32094;SDS011;18608;53.688;10.748;2023-06-22T10:02:25;2.23;;;2.03;;
32094;SDS011;18608;53.688;10.748;2023-06-22T10:04:51;2.37;;;2.20;;
32094;SDS011;18608;53.688;10.748;2023-06-22T10:07:17;3.43;;;3.13;;
32094;SDS011;18608;53.688;10.748;2023-06-22T10:09:43;3.87;;;2.50;;
32094;SDS011;18608;53.688;10.748;2023-06-22T10:12:09;3.30;;;3.00;;
32094;SDS011;18608;53.688;10.748;2023-06-22T10:14:35;3.83;;;2.50;;
32094;SDS011;18608;53.688;10.748;2023-06-22T10:17:02;2.50;;;2.30;;
32094;SDS011;18608;53.688;10.748;2023-06-22T10:19:28;2.80;;;2.30;;
32094;SDS011;18608;53.688;10.748;2023-06-22T10:21:54;2.43;;;2.20;;
32094;SDS011;18608;53.688;10.748;2023-06-22T10:24:20;2.43;;;2.23;;
32094;SDS011;18608;53.688;10.748;2023-06-22T10:26:46;8.87;;;2.53;;
32094;SDS011;18608;53.688;10.748;2023-06-22T10:29:12;3.53;;;2.97;;
32094;SDS011;18608;53.688;10.748;2023-06-22T10:31:38;3.80;;;3.10;;
32094;SDS011;18608;53.688;10.748;2023-06-22T10:34:04;2.80;;;2.40;;
32094;SDS011;18608;53.688;10.748;2023-06-22T10:36:30;3.03;;;2.70;;
32094;SDS011;18608;53.688;10.748;2023-06-22T10:38:56;3.90;;;2.83;;
32094;SDS011;18608;53.688;10.748;2023-06-22T10:41:24;3.50;;;2.50;;
32094;SDS011;18608;53.688;10.748;2023-06-22T10:43:50;2.07;;;1.87;;
32094;SDS011;18608;53.688;10.748;2023-06-22T10:46:16;3.00;;;2.80;;
32094;SDS011;18608;53.688;10.748;2023-06-22T10:48:42;5.00;;;3.47;;
32094;SDS011;18608;53.688;10.748;2023-06-22T10:51:08;6.10;;;2.63;;
32094;SDS011;18608;53.688;10.748;2023-06-22T10:53:34;3.50;;;2.73;;
32094;SDS011;18608;53.688;10.748;2023-06-22T10:56:00;2.93;;;2.57;;
32094;SDS011;18608;53.688;10.748;2023-06-22T10:58:26;2.47;;;2.27;;
32094;SDS011;18608;53.688;10.748;2023-06-22T11:00:52;5.60;;;2.70;;
32094;SDS011;18608;53.688;10.748;2023-06-22T11:03:18;3.03;;;2.77;;
32094;SDS011;18608;53.688;10.748;2023-06-22T11:05:44;4.03;;;2.67;;
32094;SDS011;18608;53.688;10.748;2023-06-22T11:08:12;2.07;;;1.87;;
32094;SDS011;18608;53.688;10.748;2023-06-22T11:10:38;12.20;;;4.13;;
32094;SDS011;18608;53.688;10.748;2023-06-22T11:13:04;6.33;;;3.13;;
32094;SDS011;18608;53.688;10.748;2023-06-22T11:15:34;2.57;;;2.37;;
32094;SDS011;18608;53.688;10.748;2023-06-22T11:18:00;3.23;;;2.60;;
32094;SDS011;18608;53.688;10.748;2023-06-22T11:20:26;3.57;;;2.53;;
32094;SDS011;18608;53.688;10.748;2023-06-22T11:22:52;5.63;;;2.43;;
32094;SDS011;18608;53.688;10.748;2023-06-22T11:25:18;5.00;;;3.20;;
32094;SDS011;18608;53.688;10.748;2023-06-22T11:27:44;3.17;;;2.80;;
32094;SDS011;18608;53.688;10.748;2023-06-22T11:30:10;3.10;;;2.80;;
32094;SDS011;18608;53.688;10.748;2023-06-22T11:32:36;4.07;;;3.30;;
32094;SDS011;18608;53.688;10.748;2023-06-22T11:35:02;6.60;;;2.50;;
32094;SDS011;18608;53.688;10.748;2023-06-22T11:37:28;3.27;;;2.90;;
32094;SDS011;18608;53.688;10.748;2023-06-22T11:39:54;5.67;;;3.73;;
32094;SDS011;18608;53.688;10.748;2023-06-22T11:42:20;5.17;;;2.80;;
32094;SDS011;18608;53.688;10.748;2023-06-22T11:44:48;3.03;;;2.83;;
32094;SDS011;18608;53.688;10.748;2023-06-22T11:47:14;3.73;;;2.80;;
32094;SDS011;18608;53.688;10.748;2023-06-22T11:49:41;3.40;;;3.10;;
32094;SDS011;18608;53.688;10.748;2023-06-22T11:52:07;4.80;;;3.03;;
32094;SDS011;18608;53.688;10.748;2023-06-22T11:54:33;3.40;;;2.97;;
32094;SDS011;18608;53.688;10.748;2023-06-22T11:56:59;3.23;;;2.93;;
32094;SDS011;18608;53.688;10.748;2023-06-22T11:59:25;4.63;;;3.33;;
32094;SDS011;18608;53.688;10.748;2023-06-22T12:01:51;4.30;;;2.90;;
32094;SDS011;18608;53.688;10.748;2023-06-22T12:04:17;10.40;;;3.47;;
32094;SDS011;18608;53.688;10.748;2023-06-22T12:06:43;3.73;;;3.17;;
32094;SDS011;18608;53.688;10.748;2023-06-22T12:09:09;4.27;;;3.40;;
32094;SDS011;18608;53.688;10.748;2023-06-22T12:11:35;3.97;;;3.67;;
32094;SDS011;18608;53.688;10.748;2023-06-22T12:14:01;7.40;;;3.40;;
32094;SDS011;18608;53.688;10.748;2023-06-22T12:16:28;6.87;;;3.40;;
32094;SDS011;18608;53.688;10.748;2023-06-22T12:18:54;13.33;;;3.50;;
32094;SDS011;18608;53.688;10.748;2023-06-22T12:21:20;4.43;;;3.23;;
32094;SDS011;18608;53.688;10.748;2023-06-22T12:23:46;4.40;;;3.50;;
32094;SDS011;18608;53.688;10.748;2023-06-22T12:26:12;5.73;;;3.90;;
32094;SDS011;18608;53.688;10.748;2023-06-22T12:28:38;5.90;;;3.90;;
32094;SDS011;18608;53.688;10.748;2023-06-22T12:31:04;4.07;;;3.67;;
32094;SDS011;18608;53.688;10.748;2023-06-22T12:33:30;4.50;;;3.97;;
32094;SDS011;18608;53.688;10.748;2023-06-22T12:35:56;4.10;;;3.73;;
32094;SDS011;18608;53.688;10.748;2023-06-22T12:38:22;3.80;;;3.10;;
32094;SDS011;18608;53.688;10.748;2023-06-22T12:40:50;5.77;;;4.60;;
32094;SDS011;18608;53.688;10.748;2023-06-22T12:43:17;3.33;;;2.97;;
32094;SDS011;18608;53.688;10.748;2023-06-22T12:45:43;5.93;;;4.10;;
32094;SDS011;18608;53.688;10.748;2023-06-22T12:48:09;7.43;;;4.10;;
32094;SDS011;18608;53.688;10.748;2023-06-22T12:50:34;3.73;;;3.43;;
32094;SDS011;18608;53.688;10.748;2023-06-22T12:53:01;6.53;;;3.90;;
32094;SDS011;18608;53.688;10.748;2023-06-22T12:55:28;4.53;;;4.10;;
32094;SDS011;18608;53.688;10.748;2023-06-22T12:57:54;12.33;;;4.10;;
32094;SDS011;18608;53.688;10.748;2023-06-22T13:00:20;4.13;;;3.83;;
32094;SDS011;18608;53.688;10.748;2023-06-22T13:02:46;6.83;;;4.23;;
32094;SDS011;18608;53.688;10.748;2023-06-22T13:05:12;4.03;;;3.70;;
32094;SDS011;18608;53.688;10.748;2023-06-22T13:07:38;4.47;;;4.07;;
32094;SDS011;18608;53.688;10.748;2023-06-22T13:10:04;8.93;;;4.93;;
32094;SDS011;18608;53.688;10.748;2023-06-22T13:12:30;6.77;;;4.40;;
32094;SDS011;18608;53.688;10.748;2023-06-22T13:14:56;4.33;;;3.93;;
32094;SDS011;18608;53.688;10.748;2023-06-22T13:17:22;8.03;;;4.23;;
32094;SDS011;18608;53.688;10.748;2023-06-22T13:19:48;4.03;;;3.47;;
32094;SDS011;18608;53.688;10.748;2023-06-22T13:22:28;5.27;;;4.30;;
32094;SDS011;18608;53.688;10.748;2023-06-22T13:24:59;4.73;;;4.20;;
32094;SDS011;18608;53.688;10.748;2023-06-22T13:27:25;4.57;;;4.17;;
32094;SDS011;18608;53.688;10.748;2023-06-22T13:29:52;6.80;;;4.17;;
32094;SDS011;18608;53.688;10.748;2023-06-22T13:32:18;4.43;;;4.00;;
32094;SDS011;18608;53.688;10.748;2023-06-22T13:34:44;4.20;;;3.77;;
32094;SDS011;18608;53.688;10.748;2023-06-22T13:37:10;6.10;;;4.53;;
32094;SDS011;18608;53.688;10.748;2023-06-22T13:39:36;5.53;;;4.97;;
32094;SDS011;18608;53.688;10.748;2023-06-22T13:42:02;4.70;;;4.30;;
32094;SDS011;18608;53.688;10.748;2023-06-22T13:44:28;4.63;;;4.23;;
32094;SDS011;18608;53.688;10.748;2023-06-22T13:46:54;6.03;;;5.43;;
32094;SDS011;18608;53.688;10.748;2023-06-22T13:49:20;4.73;;;4.33;;
32094;SDS011;18608;53.688;10.748;2023-06-22T13:51:46;4.90;;;3.80;;
32094;SDS011;18608;53.688;10.748;2023-06-22T13:54:13;4.90;;;3.40;;
32094;SDS011;18608;53.688;10.748;2023-06-22T13:56:40;4.30;;;3.90;;
32094;SDS011;18608;53.688;10.748;2023-06-22T13:59:06;4.90;;;3.80;;
32094;SDS011;18608;53.688;10.748;2023-06-22T14:01:34;4.57;;;4.17;;
32094;SDS011;18608;53.688;10.748;2023-06-22T14:04:00;6.93;;;4.80;;
32094;SDS011;18608;53.688;10.748;2023-06-22T14:06:29;6.13;;;4.17;;
32094;SDS011;18608;53.688;10.748;2023-06-22T14:08:55;6.10;;;5.40;;
32094;SDS011;18608;53.688;10.748;2023-06-22T14:11:21;8.53;;;5.23;;
32094;SDS011;18608;53.688;10.748;2023-06-22T14:13:47;5.30;;;4.80;;
32094;SDS011;18608;53.688;10.748;2023-06-22T14:16:13;5.30;;;4.03;;
32094;SDS011;18608;53.688;10.748;2023-06-22T14:18:40;5.70;;;4.70;;
32094;SDS011;18608;53.688;10.748;2023-06-22T14:21:07;4.83;;;4.33;;
32094;SDS011;18608;53.688;10.748;2023-06-22T14:23:33;5.53;;;4.40;;
32094;SDS011;18608;53.688;10.748;2023-06-22T14:25:59;6.90;;;4.10;;
32094;SDS011;18608;53.688;10.748;2023-06-22T14:28:25;6.47;;;4.47;;
32094;SDS011;18608;53.688;10.748;2023-06-22T14:30:51;4.73;;;3.70;;
32094;SDS011;18608;53.688;10.748;2023-06-22T14:33:17;4.20;;;3.90;;
32094;SDS011;18608;53.688;10.748;2023-06-22T14:35:43;6.27;;;4.07;;
32094;SDS011;18608;53.688;10.748;2023-06-22T14:38:09;10.50;;;4.73;;
32094;SDS011;18608;53.688;10.748;2023-06-22T14:40:35;6.20;;;3.97;;
32094;SDS011;18608;53.688;10.748;2023-06-22T14:43:01;7.27;;;3.47;;